sensor_id;sensor_type;location;lat;lon;timestamp;P1;durP1;ratioP1;P2;durP2;ratioP2
33593;SDS011;19920;52.242;20.940;2023-11-18T00:01:23;18.38;;;11.88;;
33593;SDS011;19920;52.242;20.940;2023-11-18T00:03:49;17.75;;;11.35;;
33593;SDS011;19920;52.242;20.940;2023-11-18T00:06:14;18.55;;;11.60;;
33593;SDS011;19920;52.242;20.940;2023-11-18T00:08:40;15.60;;;10.45;;
33593;SDS011;19920;52.242;20.940;2023-11-18T00:11:05;17.85;;;10.63;;
33593;SDS011;19920;52.242;20.940;2023-11-18T00:13:31;16.55;;;10.50;;
33593;SDS011;19920;52.242;20.940;2023-11-18T00:15:57;16.95;;;10.32;;
33593;SDS011;19920;52.242;20.940;2023-11-18T00:18:23;16.65;;;10.60;;
33593;SDS011;19920;52.242;20.940;2023-11-18T00:20:49;16.88;;;10.55;;
33593;SDS011;19920;52.242;20.940;2023-11-18T00:23:15;14.93;;;10.25;;
33593;SDS011;19920;52.242;20.940;2023-11-18T00:25:42;16.30;;;10.32;;
33593;SDS011;19920;52.242;20.940;2023-11-18T00:28:10;16.17;;;10.55;;
33593;SDS011;19920;52.242;20.940;2023-11-18T00:30:36;15.93;;;10.90;;
33593;SDS011;19920;52.242;20.940;2023-11-18T00:33:02;17.10;;;10.77;;
33593;SDS011;19920;52.242;20.940;2023-11-18T00:35:28;15.05;;;10.10;;
33593;SDS011;19920;52.242;20.940;2023-11-18T00:37:56;15.32;;;10.10;;
33593;SDS011;19920;52.242;20.940;2023-11-18T00:40:23;15.85;;;10.60;;
33593;SDS011;19920;52.242;20.940;2023-11-18T00:42:48;16.23;;;9.95;;
33593;SDS011;19920;52.242;20.940;2023-11-18T00:45:14;15.43;;;9.95;;
33593;SDS011;19920;52.242;20.940;2023-11-18T00:47:40;14.43;;;9.30;;
33593;SDS011;19920;52.242;20.940;2023-11-18T00:50:08;14.25;;;10.15;;
33593;SDS011;19920;52.242;20.940;2023-11-18T00:52:34;17.63;;;10.02;;
33593;SDS011;19920;52.242;20.940;2023-11-18T00:55:00;14.88;;;9.48;;
33593;SDS011;19920;52.242;20.940;2023-11-18T00:57:26;13.95;;;8.93;;
33593;SDS011;19920;52.242;20.940;2023-11-18T00:59:52;14.15;;;10.00;;
33593;SDS011;19920;52.242;20.940;2023-11-18T01:02:17;13.20;;;9.27;;
33593;SDS011;19920;52.242;20.940;2023-11-18T01:04:43;13.40;;;8.88;;
33593;SDS011;19920;52.242;20.940;2023-11-18T01:07:12;12.57;;;8.30;;
33593;SDS011;19920;52.242;20.940;2023-11-18T01:09:37;12.45;;;8.00;;
33593;SDS011;19920;52.242;20.940;2023-11-18T01:12:04;13.70;;;8.73;;
33593;SDS011;19920;52.242;20.940;2023-11-18T01:14:30;12.60;;;8.82;;
33593;SDS011;19920;52.242;20.940;2023-11-18T01:16:56;14.60;;;8.50;;
33593;SDS011;19920;52.242;20.940;2023-11-18T01:19:22;12.60;;;8.27;;
33593;SDS011;19920;52.242;20.940;2023-11-18T01:21:48;12.70;;;8.73;;
33593;SDS011;19920;52.242;20.940;2023-11-18T01:24:14;12.35;;;8.27;;
33593;SDS011;19920;52.242;20.940;2023-11-18T01:26:41;13.23;;;8.18;;
33593;SDS011;19920;52.242;20.940;2023-11-18T01:29:07;12.85;;;8.77;;
33593;SDS011;19920;52.242;20.940;2023-11-18T01:31:32;13.52;;;8.18;;
33593;SDS011;19920;52.242;20.940;2023-11-18T01:33:58;14.63;;;8.88;;
33593;SDS011;19920;52.242;20.940;2023-11-18T01:36:24;14.27;;;8.23;;
33593;SDS011;19920;52.242;20.940;2023-11-18T01:38:50;12.88;;;8.27;;
33593;SDS011;19920;52.242;20.940;2023-11-18T01:41:16;11.60;;;7.50;;
33593;SDS011;19920;52.242;20.940;2023-11-18T01:43:43;10.77;;;8.05;;
33593;SDS011;19920;52.242;20.940;2023-11-18T01:48:38;11.98;;;7.72;;
33593;SDS011;19920;52.242;20.940;2023-11-18T01:51:05;12.70;;;7.80;;
33593;SDS011;19920;52.242;20.940;2023-11-18T01:53:32;11.45;;;7.70;;
33593;SDS011;19920;52.242;20.940;2023-11-18T01:56:02;11.02;;;7.72;;
33593;SDS011;19920;52.242;20.940;2023-11-18T01:58:30;11.88;;;7.65;;
33593;SDS011;19920;52.242;20.940;2023-11-18T02:00:56;11.05;;;7.47;;
33593;SDS011;19920;52.242;20.940;2023-11-18T02:03:22;12.23;;;7.40;;
33593;SDS011;19920;52.242;20.940;2023-11-18T02:05:48;12.43;;;7.07;;
33593;SDS011;19920;52.242;20.940;2023-11-18T02:08:13;12.15;;;7.20;;
33593;SDS011;19920;52.242;20.940;2023-11-18T02:10:47;11.70;;;7.15;;
33593;SDS011;19920;52.242;20.940;2023-11-18T02:13:19;8.45;;;6.25;;
33593;SDS011;19920;52.242;20.940;2023-11-18T02:15:53;11.45;;;7.30;;
33593;SDS011;19920;52.242;20.940;2023-11-18T02:18:23;9.63;;;7.10;;
33593;SDS011;19920;52.242;20.940;2023-11-18T02:20:57;9.80;;;6.93;;
33593;SDS011;19920;52.242;20.940;2023-11-18T02:23:23;10.75;;;6.88;;
33593;SDS011;19920;52.242;20.940;2023-11-18T02:25:51;8.80;;;6.38;;
33593;SDS011;19920;52.242;20.940;2023-11-18T02:28:17;10.02;;;6.60;;
33593;SDS011;19920;52.242;20.940;2023-11-18T02:30:43;10.02;;;6.40;;
33593;SDS011;19920;52.242;20.940;2023-11-18T02:33:25;9.52;;;6.35;;
33593;SDS011;19920;52.242;20.940;2023-11-18T02:36:05;9.48;;;6.13;;
33593;SDS011;19920;52.242;20.940;2023-11-18T02:38:40;9.52;;;6.20;;
33593;SDS011;19920;52.242;20.940;2023-11-18T02:41:10;8.45;;;5.90;;
33593;SDS011;19920;52.242;20.940;2023-11-18T02:43:39;8.98;;;5.75;;
33593;SDS011;19920;52.242;20.940;2023-11-18T02:46:05;8.73;;;5.80;;
33593;SDS011;19920;52.242;20.940;2023-11-18T02:48:32;8.65;;;5.95;;
33593;SDS011;19920;52.242;20.940;2023-11-18T02:51:00;8.05;;;5.85;;
33593;SDS011;19920;52.242;20.940;2023-11-18T02:53:26;7.22;;;5.40;;
33593;SDS011;19920;52.242;20.940;2023-11-18T02:55:52;7.97;;;5.63;;
33593;SDS011;19920;52.242;20.940;2023-11-18T02:58:18;8.32;;;5.75;;
33593;SDS011;19920;52.242;20.940;2023-11-18T03:00:44;7.47;;;5.20;;
33593;SDS011;19920;52.242;20.940;2023-11-18T03:03:10;8.10;;;5.32;;
33593;SDS011;19920;52.242;20.940;2023-11-18T03:05:36;6.68;;;5.18;;
33593;SDS011;19920;52.242;20.940;2023-11-18T03:08:02;6.80;;;5.15;;
33593;SDS011;19920;52.242;20.940;2023-11-18T03:10:31;8.95;;;5.78;;
33593;SDS011;19920;52.242;20.940;2023-11-18T03:13:00;7.05;;;5.18;;
33593;SDS011;19920;52.242;20.940;2023-11-18T03:15:25;7.05;;;5.18;;
33593;SDS011;19920;52.242;20.940;2023-11-18T03:17:52;7.60;;;5.13;;
33593;SDS011;19920;52.242;20.940;2023-11-18T03:20:18;6.40;;;5.13;;
33593;SDS011;19920;52.242;20.940;2023-11-18T03:22:46;8.38;;;4.97;;
33593;SDS011;19920;52.242;20.940;2023-11-18T03:25:12;6.78;;;5.28;;
33593;SDS011;19920;52.242;20.940;2023-11-18T03:27:38;8.55;;;4.90;;
33593;SDS011;19920;52.242;20.940;2023-11-18T03:30:05;6.32;;;4.82;;
33593;SDS011;19920;52.242;20.940;2023-11-18T03:32:32;6.43;;;4.53;;
33593;SDS011;19920;52.242;20.940;2023-11-18T03:34:58;6.80;;;4.72;;
33593;SDS011;19920;52.242;20.940;2023-11-18T03:37:26;6.45;;;4.82;;
33593;SDS011;19920;52.242;20.940;2023-11-18T03:39:52;7.55;;;5.20;;
33593;SDS011;19920;52.242;20.940;2023-11-18T03:42:18;6.25;;;4.78;;
33593;SDS011;19920;52.242;20.940;2023-11-18T03:44:43;7.65;;;5.13;;
33593;SDS011;19920;52.242;20.940;2023-11-18T03:47:12;5.85;;;4.68;;
33593;SDS011;19920;52.242;20.940;2023-11-18T03:49:39;6.03;;;4.50;;
33593;SDS011;19920;52.242;20.940;2023-11-18T03:52:05;6.35;;;4.68;;
33593;SDS011;19920;52.242;20.940;2023-11-18T03:54:31;5.82;;;4.40;;
33593;SDS011;19920;52.242;20.940;2023-11-18T03:56:56;6.78;;;4.90;;
33593;SDS011;19920;52.242;20.940;2023-11-18T03:59:22;6.50;;;4.88;;
33593;SDS011;19920;52.242;20.940;2023-11-18T04:01:47;7.00;;;5.05;;
33593;SDS011;19920;52.242;20.940;2023-11-18T04:04:15;8.02;;;5.30;;
33593;SDS011;19920;52.242;20.940;2023-11-18T04:06:41;6.68;;;5.25;;
33593;SDS011;19920;52.242;20.940;2023-11-18T04:09:07;7.53;;;5.32;;
33593;SDS011;19920;52.242;20.940;2023-11-18T04:11:34;7.55;;;5.07;;
33593;SDS011;19920;52.242;20.940;2023-11-18T04:14:00;7.50;;;5.47;;
33593;SDS011;19920;52.242;20.940;2023-11-18T04:16:28;8.63;;;5.78;;
33593;SDS011;19920;52.242;20.940;2023-11-18T04:18:54;7.25;;;5.47;;
33593;SDS011;19920;52.242;20.940;2023-11-18T04:21:19;7.10;;;5.45;;
33593;SDS011;19920;52.242;20.940;2023-11-18T04:23:45;6.65;;;5.10;;
33593;SDS011;19920;52.242;20.940;2023-11-18T04:26:11;7.28;;;5.57;;
33593;SDS011;19920;52.242;20.940;2023-11-18T04:28:37;8.18;;;4.90;;
33593;SDS011;19920;52.242;20.940;2023-11-18T04:31:03;7.63;;;5.60;;
33593;SDS011;19920;52.242;20.940;2023-11-18T04:33:30;7.28;;;5.57;;
33593;SDS011;19920;52.242;20.940;2023-11-18T04:35:55;6.60;;;5.13;;
33593;SDS011;19920;52.242;20.940;2023-11-18T04:38:24;7.60;;;5.13;;
33593;SDS011;19920;52.242;20.940;2023-11-18T04:40:51;7.07;;;5.05;;
33593;SDS011;19920;52.242;20.940;2023-11-18T04:43:18;6.72;;;5.10;;
33593;SDS011;19920;52.242;20.940;2023-11-18T04:45:45;7.15;;;5.15;;
33593;SDS011;19920;52.242;20.940;2023-11-18T04:48:11;6.28;;;5.10;;
33593;SDS011;19920;52.242;20.940;2023-11-18T04:50:38;6.45;;;5.30;;
33593;SDS011;19920;52.242;20.940;2023-11-18T04:53:04;6.25;;;5.45;;
33593;SDS011;19920;52.242;20.940;2023-11-18T04:55:33;10.20;;;5.70;;
33593;SDS011;19920;52.242;20.940;2023-11-18T04:57:59;8.02;;;5.53;;
33593;SDS011;19920;52.242;20.940;2023-11-18T05:00:25;7.20;;;5.30;;
33593;SDS011;19920;52.242;20.940;2023-11-18T05:02:51;7.85;;;5.88;;
33593;SDS011;19920;52.242;20.940;2023-11-18T05:05:17;8.40;;;5.55;;
33593;SDS011;19920;52.242;20.940;2023-11-18T05:07:43;8.98;;;6.15;;
33593;SDS011;19920;52.242;20.940;2023-11-18T05:10:09;8.15;;;5.80;;
33593;SDS011;19920;52.242;20.940;2023-11-18T05:12:35;7.65;;;5.78;;
33593;SDS011;19920;52.242;20.940;2023-11-18T05:15:01;9.07;;;6.30;;
33593;SDS011;19920;52.242;20.940;2023-11-18T05:17:29;7.53;;;5.97;;
33593;SDS011;19920;52.242;20.940;2023-11-18T05:19:55;8.48;;;6.30;;
33593;SDS011;19920;52.242;20.940;2023-11-18T05:22:20;7.53;;;5.63;;
33593;SDS011;19920;52.242;20.940;2023-11-18T05:24:46;9.10;;;6.25;;
33593;SDS011;19920;52.242;20.940;2023-11-18T05:27:13;8.18;;;5.75;;
33593;SDS011;19920;52.242;20.940;2023-11-18T05:29:39;7.35;;;5.55;;
33593;SDS011;19920;52.242;20.940;2023-11-18T05:32:06;12.57;;;6.30;;
33593;SDS011;19920;52.242;20.940;2023-11-18T05:34:32;8.27;;;5.82;;
33593;SDS011;19920;52.242;20.940;2023-11-18T05:37:00;8.98;;;6.53;;
33593;SDS011;19920;52.242;20.940;2023-11-18T05:39:26;8.68;;;5.97;;
33593;SDS011;19920;52.242;20.940;2023-11-18T05:41:53;7.78;;;6.18;;
33593;SDS011;19920;52.242;20.940;2023-11-18T05:44:21;9.38;;;6.10;;
33593;SDS011;19920;52.242;20.940;2023-11-18T05:46:55;7.30;;;5.43;;
33593;SDS011;19920;52.242;20.940;2023-11-18T05:49:21;7.97;;;5.88;;
33593;SDS011;19920;52.242;20.940;2023-11-18T05:51:49;6.25;;;4.97;;
33593;SDS011;19920;52.242;20.940;2023-11-18T05:54:14;7.32;;;5.18;;
33593;SDS011;19920;52.242;20.940;2023-11-18T05:56:40;6.97;;;4.95;;
33593;SDS011;19920;52.242;20.940;2023-11-18T05:59:06;6.32;;;4.57;;
33593;SDS011;19920;52.242;20.940;2023-11-18T06:01:33;7.22;;;5.05;;
33593;SDS011;19920;52.242;20.940;2023-11-18T06:03:59;7.63;;;5.78;;
33593;SDS011;19920;52.242;20.940;2023-11-18T06:06:25;8.30;;;5.60;;
33593;SDS011;19920;52.242;20.940;2023-11-18T06:08:51;7.25;;;5.50;;
33593;SDS011;19920;52.242;20.940;2023-11-18T06:11:18;9.65;;;6.65;;
33593;SDS011;19920;52.242;20.940;2023-11-18T06:13:45;9.43;;;7.00;;
33593;SDS011;19920;52.242;20.940;2023-11-18T06:16:13;10.45;;;7.88;;
33593;SDS011;19920;52.242;20.940;2023-11-18T06:18:39;9.20;;;7.07;;
33593;SDS011;19920;52.242;20.940;2023-11-18T06:21:06;12.18;;;7.50;;
33593;SDS011;19920;52.242;20.940;2023-11-18T06:23:32;11.55;;;6.80;;
33593;SDS011;19920;52.242;20.940;2023-11-18T06:25:58;10.98;;;7.15;;
33593;SDS011;19920;52.242;20.940;2023-11-18T06:28:25;11.70;;;6.75;;
33593;SDS011;19920;52.242;20.940;2023-11-18T06:30:52;11.40;;;7.57;;
33593;SDS011;19920;52.242;20.940;2023-11-18T06:33:17;11.00;;;7.57;;
33593;SDS011;19920;52.242;20.940;2023-11-18T06:35:43;15.68;;;8.52;;
33593;SDS011;19920;52.242;20.940;2023-11-18T06:38:10;12.40;;;8.45;;
33593;SDS011;19920;52.242;20.940;2023-11-18T06:40:38;14.65;;;9.25;;
33593;SDS011;19920;52.242;20.940;2023-11-18T06:43:03;15.50;;;8.32;;
33593;SDS011;19920;52.242;20.940;2023-11-18T06:45:35;14.18;;;8.00;;
33593;SDS011;19920;52.242;20.940;2023-11-18T06:48:02;10.73;;;7.60;;
33593;SDS011;19920;52.242;20.940;2023-11-18T06:50:30;10.52;;;7.13;;
33593;SDS011;19920;52.242;20.940;2023-11-18T06:52:57;11.95;;;7.85;;
33593;SDS011;19920;52.242;20.940;2023-11-18T06:55:23;13.65;;;9.20;;
33593;SDS011;19920;52.242;20.940;2023-11-18T06:57:51;14.48;;;9.68;;
33593;SDS011;19920;52.242;20.940;2023-11-18T07:00:17;14.10;;;8.73;;
33593;SDS011;19920;52.242;20.940;2023-11-18T07:02:43;16.75;;;10.25;;
33593;SDS011;19920;52.242;20.940;2023-11-18T07:05:08;17.90;;;10.13;;
33593;SDS011;19920;52.242;20.940;2023-11-18T07:07:34;16.60;;;10.52;;
33593;SDS011;19920;52.242;20.940;2023-11-18T07:10:00;14.55;;;10.25;;
33593;SDS011;19920;52.242;20.940;2023-11-18T07:12:25;9.07;;;6.35;;
33593;SDS011;19920;52.242;20.940;2023-11-18T07:14:51;15.93;;;8.95;;
33593;SDS011;19920;52.242;20.940;2023-11-18T07:17:19;13.20;;;8.85;;
33593;SDS011;19920;52.242;20.940;2023-11-18T07:19:44;15.00;;;9.60;;
33593;SDS011;19920;52.242;20.940;2023-11-18T07:22:10;14.95;;;9.80;;
33593;SDS011;19920;52.242;20.940;2023-11-18T07:24:36;13.98;;;9.60;;
33593;SDS011;19920;52.242;20.940;2023-11-18T07:27:02;17.17;;;10.10;;
33593;SDS011;19920;52.242;20.940;2023-11-18T07:29:30;16.17;;;9.68;;
33593;SDS011;19920;52.242;20.940;2023-11-18T07:31:57;14.95;;;8.93;;
33593;SDS011;19920;52.242;20.940;2023-11-18T07:34:23;15.57;;;8.40;;
33593;SDS011;19920;52.242;20.940;2023-11-18T07:36:48;16.75;;;8.52;;
33593;SDS011;19920;52.242;20.940;2023-11-18T07:39:15;16.10;;;9.05;;
33593;SDS011;19920;52.242;20.940;2023-11-18T07:41:41;15.48;;;9.88;;
33593;SDS011;19920;52.242;20.940;2023-11-18T07:44:07;18.08;;;10.07;;
33593;SDS011;19920;52.242;20.940;2023-11-18T07:46:35;17.02;;;10.25;;
33593;SDS011;19920;52.242;20.940;2023-11-18T07:49:03;18.58;;;10.50;;
33593;SDS011;19920;52.242;20.940;2023-11-18T07:51:29;17.90;;;11.05;;
33593;SDS011;19920;52.242;20.940;2023-11-18T07:53:54;16.45;;;10.00;;
33593;SDS011;19920;52.242;20.940;2023-11-18T07:56:20;16.52;;;10.00;;
33593;SDS011;19920;52.242;20.940;2023-11-18T07:58:48;16.77;;;10.88;;
33593;SDS011;19920;52.242;20.940;2023-11-18T08:01:15;16.42;;;11.05;;
33593;SDS011;19920;52.242;20.940;2023-11-18T08:03:41;19.95;;;11.65;;
33593;SDS011;19920;52.242;20.940;2023-11-18T08:06:07;17.77;;;9.90;;
33593;SDS011;19920;52.242;20.940;2023-11-18T08:08:34;16.25;;;9.35;;
33593;SDS011;19920;52.242;20.940;2023-11-18T08:11:02;13.52;;;9.25;;
33593;SDS011;19920;52.242;20.940;2023-11-18T08:13:31;14.07;;;9.32;;
33593;SDS011;19920;52.242;20.940;2023-11-18T08:15:57;13.32;;;8.48;;
33593;SDS011;19920;52.242;20.940;2023-11-18T08:18:23;12.02;;;8.75;;
33593;SDS011;19920;52.242;20.940;2023-11-18T08:20:49;12.05;;;8.00;;
33593;SDS011;19920;52.242;20.940;2023-11-18T08:23:15;11.52;;;8.30;;
33593;SDS011;19920;52.242;20.940;2023-11-18T08:25:41;10.93;;;7.63;;
33593;SDS011;19920;52.242;20.940;2023-11-18T08:28:07;9.90;;;6.95;;
33593;SDS011;19920;52.242;20.940;2023-11-18T08:30:33;12.20;;;7.40;;
33593;SDS011;19920;52.242;20.940;2023-11-18T08:32:59;10.77;;;7.30;;
33593;SDS011;19920;52.242;20.940;2023-11-18T08:35:25;12.18;;;7.32;;
33593;SDS011;19920;52.242;20.940;2023-11-18T08:37:50;10.43;;;6.97;;
33593;SDS011;19920;52.242;20.940;2023-11-18T08:40:17;10.32;;;6.82;;
33593;SDS011;19920;52.242;20.940;2023-11-18T08:42:51;9.50;;;6.70;;
33593;SDS011;19920;52.242;20.940;2023-11-18T08:45:20;10.77;;;6.90;;
33593;SDS011;19920;52.242;20.940;2023-11-18T08:47:54;10.77;;;6.93;;
33593;SDS011;19920;52.242;20.940;2023-11-18T08:50:24;9.13;;;6.63;;
33593;SDS011;19920;52.242;20.940;2023-11-18T08:52:51;9.13;;;6.28;;
33593;SDS011;19920;52.242;20.940;2023-11-18T08:55:29;9.23;;;6.97;;
33593;SDS011;19920;52.242;20.940;2023-11-18T08:58:10;9.45;;;7.10;;
33593;SDS011;19920;52.242;20.940;2023-11-18T09:00:58;8.88;;;6.47;;
33593;SDS011;19920;52.242;20.940;2023-11-18T09:03:31;11.02;;;6.55;;
33593;SDS011;19920;52.242;20.940;2023-11-18T09:06:03;10.35;;;6.95;;
33593;SDS011;19920;52.242;20.940;2023-11-18T09:08:32;9.88;;;7.00;;
33593;SDS011;19920;52.242;20.940;2023-11-18T09:11:03;10.10;;;6.93;;
33593;SDS011;19920;52.242;20.940;2023-11-18T09:13:30;9.15;;;6.75;;
33593;SDS011;19920;52.242;20.940;2023-11-18T09:15:57;8.52;;;6.20;;
33593;SDS011;19920;52.242;20.940;2023-11-18T09:18:29;10.77;;;7.10;;
33593;SDS011;19920;52.242;20.940;2023-11-18T09:20:56;10.90;;;7.05;;
33593;SDS011;19920;52.242;20.940;2023-11-18T09:23:30;10.95;;;6.60;;
33593;SDS011;19920;52.242;20.940;2023-11-18T09:25:57;10.55;;;6.85;;
33593;SDS011;19920;52.242;20.940;2023-11-18T09:28:23;11.32;;;6.60;;
33593;SDS011;19920;52.242;20.940;2023-11-18T09:30:49;10.10;;;6.38;;
33593;SDS011;19920;52.242;20.940;2023-11-18T09:33:19;9.65;;;6.00;;
33593;SDS011;19920;52.242;20.940;2023-11-18T09:35:56;9.50;;;6.18;;
33593;SDS011;19920;52.242;20.940;2023-11-18T09:38:31;8.40;;;5.63;;
33593;SDS011;19920;52.242;20.940;2023-11-18T09:40:58;9.18;;;6.03;;
33593;SDS011;19920;52.242;20.940;2023-11-18T09:43:36;8.30;;;5.93;;
33593;SDS011;19920;52.242;20.940;2023-11-18T09:46:12;8.38;;;5.75;;
33593;SDS011;19920;52.242;20.940;2023-11-18T09:48:46;9.50;;;6.45;;
33593;SDS011;19920;52.242;20.940;2023-11-18T09:51:27;10.32;;;6.53;;
33593;SDS011;19920;52.242;20.940;2023-11-18T09:54:01;8.88;;;6.25;;
33593;SDS011;19920;52.242;20.940;2023-11-18T09:56:37;10.35;;;6.53;;
33593;SDS011;19920;52.242;20.940;2023-11-18T10:02:20;11.30;;;7.25;;
33593;SDS011;19920;52.242;20.940;2023-11-18T10:04:48;9.50;;;6.53;;
33593;SDS011;19920;52.242;20.940;2023-11-18T10:07:22;10.75;;;8.02;;
33593;SDS011;19920;52.242;20.940;2023-11-18T10:09:52;12.40;;;8.63;;
33593;SDS011;19920;52.242;20.940;2023-11-18T10:12:22;13.35;;;8.70;;
33593;SDS011;19920;52.242;20.940;2023-11-18T10:14:48;12.68;;;8.50;;
33593;SDS011;19920;52.242;20.940;2023-11-18T10:17:17;14.10;;;9.32;;
33593;SDS011;19920;52.242;20.940;2023-11-18T10:19:53;16.48;;;10.02;;
33593;SDS011;19920;52.242;20.940;2023-11-18T10:22:24;16.45;;;10.02;;
33593;SDS011;19920;52.242;20.940;2023-11-18T10:24:54;16.60;;;10.15;;
33593;SDS011;19920;52.242;20.940;2023-11-18T10:27:24;16.42;;;10.65;;
33593;SDS011;19920;52.242;20.940;2023-11-18T10:29:50;14.48;;;9.82;;
33593;SDS011;19920;52.242;20.940;2023-11-18T10:32:20;18.58;;;11.55;;
33593;SDS011;19920;52.242;20.940;2023-11-18T10:34:47;18.15;;;11.63;;
33593;SDS011;19920;52.242;20.940;2023-11-18T10:37:16;19.83;;;12.43;;
33593;SDS011;19920;52.242;20.940;2023-11-18T10:39:46;18.55;;;11.82;;
33593;SDS011;19920;52.242;20.940;2023-11-18T10:42:16;18.77;;;11.38;;
33593;SDS011;19920;52.242;20.940;2023-11-18T10:44:54;18.08;;;11.77;;
33593;SDS011;19920;52.242;20.940;2023-11-18T10:47:22;18.02;;;11.75;;
33593;SDS011;19920;52.242;20.940;2023-11-18T10:49:54;16.55;;;10.30;;
33593;SDS011;19920;52.242;20.940;2023-11-18T10:52:21;17.48;;;11.18;;
33593;SDS011;19920;52.242;20.940;2023-11-18T10:55:00;16.75;;;10.43;;
33593;SDS011;19920;52.242;20.940;2023-11-18T10:57:32;20.60;;;10.50;;
33593;SDS011;19920;52.242;20.940;2023-11-18T11:02:30;14.55;;;9.93;;
33593;SDS011;19920;52.242;20.940;2023-11-18T11:05:00;15.10;;;9.23;;
33593;SDS011;19920;52.242;20.940;2023-11-18T11:07:26;14.30;;;9.85;;
33593;SDS011;19920;52.242;20.940;2023-11-18T11:09:52;14.60;;;8.55;;
33593;SDS011;19920;52.242;20.940;2023-11-18T11:12:21;13.07;;;8.95;;
33593;SDS011;19920;52.242;20.940;2023-11-18T11:15:11;12.68;;;8.65;;
33593;SDS011;19920;52.242;20.940;2023-11-18T11:17:46;14.93;;;9.48;;
33593;SDS011;19920;52.242;20.940;2023-11-18T11:20:21;14.00;;;9.07;;
33593;SDS011;19920;52.242;20.940;2023-11-18T11:31:35;16.85;;;10.55;;
33593;SDS011;19920;52.242;20.940;2023-11-18T11:34:05;17.08;;;11.20;;
33593;SDS011;19920;52.242;20.940;2023-11-18T11:36:42;19.70;;;12.23;;
33593;SDS011;19920;52.242;20.940;2023-11-18T11:39:16;17.92;;;11.57;;
33593;SDS011;19920;52.242;20.940;2023-11-18T11:41:46;21.75;;;13.55;;
33593;SDS011;19920;52.242;20.940;2023-11-18T11:44:16;21.65;;;12.98;;
33593;SDS011;19920;52.242;20.940;2023-11-18T11:46:44;21.63;;;13.43;;
33593;SDS011;19920;52.242;20.940;2023-11-18T11:49:25;20.05;;;13.45;;
33593;SDS011;19920;52.242;20.940;2023-11-18T11:52:01;23.52;;;13.60;;
33593;SDS011;19920;52.242;20.940;2023-11-18T11:57:28;22.85;;;13.88;;
33593;SDS011;19920;52.242;20.940;2023-11-18T12:02:21;21.02;;;13.00;;
33593;SDS011;19920;52.242;20.940;2023-11-18T12:04:51;20.27;;;12.25;;
33593;SDS011;19920;52.242;20.940;2023-11-18T12:07:21;18.77;;;12.45;;
33593;SDS011;19920;52.242;20.940;2023-11-18T12:09:51;19.40;;;12.07;;
33593;SDS011;19920;52.242;20.940;2023-11-18T12:12:24;18.30;;;11.75;;
33593;SDS011;19920;52.242;20.940;2023-11-18T12:14:56;17.80;;;11.52;;
33593;SDS011;19920;52.242;20.940;2023-11-18T12:18:09;19.65;;;12.73;;
33593;SDS011;19920;52.242;20.940;2023-11-18T12:20:45;17.15;;;11.00;;
33593;SDS011;19920;52.242;20.940;2023-11-18T12:23:18;17.98;;;12.15;;
33593;SDS011;19920;52.242;20.940;2023-11-18T12:25:48;16.55;;;10.68;;
33593;SDS011;19920;52.242;20.940;2023-11-18T12:28:19;17.17;;;11.40;;
33593;SDS011;19920;52.242;20.940;2023-11-18T12:30:52;17.27;;;10.77;;
33593;SDS011;19920;52.242;20.940;2023-11-18T12:33:21;19.00;;;10.88;;
33593;SDS011;19920;52.242;20.940;2023-11-18T12:41:35;17.10;;;10.85;;
33593;SDS011;19920;52.242;20.940;2023-11-18T12:44:26;15.63;;;10.52;;
33593;SDS011;19920;52.242;20.940;2023-11-18T12:47:00;15.43;;;10.25;;
33593;SDS011;19920;52.242;20.940;2023-11-18T12:49:46;16.25;;;10.45;;
33593;SDS011;19920;52.242;20.940;2023-11-18T12:52:19;15.80;;;10.15;;
33593;SDS011;19920;52.242;20.940;2023-11-18T12:54:46;15.88;;;10.13;;
33593;SDS011;19920;52.242;20.940;2023-11-18T12:57:36;15.13;;;10.13;;
33593;SDS011;19920;52.242;20.940;2023-11-18T13:00:03;16.33;;;9.95;;
33593;SDS011;19920;52.242;20.940;2023-11-18T13:02:31;14.50;;;9.70;;
33593;SDS011;19920;52.242;20.940;2023-11-18T13:04:57;14.85;;;9.50;;
33593;SDS011;19920;52.242;20.940;2023-11-18T13:07:22;15.50;;;10.18;;
33593;SDS011;19920;52.242;20.940;2023-11-18T13:09:50;16.52;;;10.27;;
33593;SDS011;19920;52.242;20.940;2023-11-18T13:12:16;15.43;;;9.68;;
33593;SDS011;19920;52.242;20.940;2023-11-18T13:14:45;12.57;;;8.10;;
33593;SDS011;19920;52.242;20.940;2023-11-18T13:17:12;15.48;;;10.35;;
33593;SDS011;19920;52.242;20.940;2023-11-18T13:19:43;14.23;;;9.82;;
33593;SDS011;19920;52.242;20.940;2023-11-18T13:22:12;14.48;;;9.50;;
33593;SDS011;19920;52.242;20.940;2023-11-18T13:24:39;17.63;;;10.10;;
33593;SDS011;19920;52.242;20.940;2023-11-18T13:27:06;14.00;;;9.40;;
33593;SDS011;19920;52.242;20.940;2023-11-18T13:29:37;14.80;;;9.32;;
33593;SDS011;19920;52.242;20.940;2023-11-18T13:32:06;15.07;;;9.93;;
33593;SDS011;19920;52.242;20.940;2023-11-18T13:34:35;14.70;;;10.00;;
33593;SDS011;19920;52.242;20.940;2023-11-18T13:37:03;14.18;;;9.05;;
33593;SDS011;19920;52.242;20.940;2023-11-18T13:39:31;15.35;;;10.35;;
33593;SDS011;19920;52.242;20.940;2023-11-18T13:41:57;15.82;;;9.85;;
33593;SDS011;19920;52.242;20.940;2023-11-18T13:44:32;17.23;;;10.02;;
33593;SDS011;19920;52.242;20.940;2023-11-18T13:47:06;16.23;;;10.13;;
33593;SDS011;19920;52.242;20.940;2023-11-18T13:49:35;16.00;;;10.02;;
33593;SDS011;19920;52.242;20.940;2023-11-18T13:52:05;15.05;;;9.85;;
33593;SDS011;19920;52.242;20.940;2023-11-18T13:54:36;15.27;;;9.77;;
33593;SDS011;19920;52.242;20.940;2023-11-18T13:57:02;13.55;;;9.43;;
33593;SDS011;19920;52.242;20.940;2023-11-18T13:59:32;15.48;;;9.85;;
33593;SDS011;19920;52.242;20.940;2023-11-18T14:01:59;16.25;;;9.80;;
33593;SDS011;19920;52.242;20.940;2023-11-18T14:04:30;16.33;;;9.65;;
33593;SDS011;19920;52.242;20.940;2023-11-18T14:07:02;18.42;;;10.18;;
33593;SDS011;19920;52.242;20.940;2023-11-18T14:09:32;16.02;;;10.00;;
33593;SDS011;19920;52.242;20.940;2023-11-18T14:12:09;17.02;;;10.15;;
33593;SDS011;19920;52.242;20.940;2023-11-18T14:14:36;16.27;;;9.50;;
33593;SDS011;19920;52.242;20.940;2023-11-18T14:17:02;16.90;;;10.13;;
33593;SDS011;19920;52.242;20.940;2023-11-18T14:19:31;16.38;;;10.45;;
33593;SDS011;19920;52.242;20.940;2023-11-18T14:21:57;15.80;;;10.60;;
33593;SDS011;19920;52.242;20.940;2023-11-18T14:24:23;15.80;;;10.57;;
33593;SDS011;19920;52.242;20.940;2023-11-18T14:26:52;18.33;;;10.50;;
33593;SDS011;19920;52.242;20.940;2023-11-18T14:29:18;19.33;;;11.80;;
33593;SDS011;19920;52.242;20.940;2023-11-18T14:31:44;16.85;;;10.95;;
33593;SDS011;19920;52.242;20.940;2023-11-18T14:34:10;19.60;;;11.95;;
33593;SDS011;19920;52.242;20.940;2023-11-18T14:36:36;18.30;;;11.93;;
33593;SDS011;19920;52.242;20.940;2023-11-18T14:39:02;18.05;;;10.60;;
33593;SDS011;19920;52.242;20.940;2023-11-18T14:41:28;17.35;;;11.43;;
33593;SDS011;19920;52.242;20.940;2023-11-18T14:43:56;19.67;;;11.90;;
33593;SDS011;19920;52.242;20.940;2023-11-18T14:46:22;15.68;;;10.65;;
33593;SDS011;19920;52.242;20.940;2023-11-18T14:48:48;20.10;;;11.88;;
33593;SDS011;19920;52.242;20.940;2023-11-18T14:51:14;19.67;;;11.63;;
33593;SDS011;19920;52.242;20.940;2023-11-18T14:53:40;19.08;;;11.75;;
33593;SDS011;19920;52.242;20.940;2023-11-18T14:56:08;19.48;;;11.95;;